sensor_id;sensor_type;location;lat;lon;timestamp;temperature;humidity
19256;DHT22;9762;52.490;13.410;2022-09-30T00:01:39;12.90;94.80
19256;DHT22;9762;52.490;13.410;2022-09-30T00:04:06;12.80;94.80
19256;DHT22;9762;52.490;13.410;2022-09-30T00:06:34;12.80;94.80
19256;DHT22;9762;52.490;13.410;2022-09-30T00:09:00;12.80;94.90
19256;DHT22;9762;52.490;13.410;2022-09-30T00:11:31;12.80;94.90
19256;DHT22;9762;52.490;13.410;2022-09-30T00:13:58;12.80;94.90
19256;DHT22;9762;52.490;13.410;2022-09-30T00:16:26;12.80;94.80
19256;DHT22;9762;52.490;13.410;2022-09-30T00:18:54;12.70;94.80
19256;DHT22;9762;52.490;13.410;2022-09-30T00:21:20;12.70;94.80
19256;DHT22;9762;52.490;13.410;2022-09-30T00:23:46;12.70;94.80
19256;DHT22;9762;52.490;13.410;2022-09-30T00:26:18;12.70;94.80
19256;DHT22;9762;52.490;13.410;2022-09-30T00:28:46;12.70;95.00
19256;DHT22;9762;52.490;13.410;2022-09-30T00:31:15;12.70;95.00
19256;DHT22;9762;52.490;13.410;2022-09-30T00:33:42;12.70;95.00
19256;DHT22;9762;52.490;13.410;2022-09-30T00:36:09;12.60;95.10
19256;DHT22;9762;52.490;13.410;2022-09-30T00:38:34;12.60;95.10
19256;DHT22;9762;52.490;13.410;2022-09-30T00:41:02;12.60;95.20
19256;DHT22;9762;52.490;13.410;2022-09-30T00:43:46;12.60;95.20
19256;DHT22;9762;52.490;13.410;2022-09-30T00:46:36;12.60;95.20
19256;DHT22;9762;52.490;13.410;2022-09-30T00:49:09;12.60;95.30
19256;DHT22;9762;52.490;13.410;2022-09-30T00:51:44;12.60;95.30
19256;DHT22;9762;52.490;13.410;2022-09-30T00:54:13;12.60;95.30
19256;DHT22;9762;52.490;13.410;2022-09-30T00:56:46;12.60;95.40
19256;DHT22;9762;52.490;13.410;2022-09-30T00:59:16;12.50;95.40
19256;DHT22;9762;52.490;13.410;2022-09-30T01:01:43;12.50;95.40
19256;DHT22;9762;52.490;13.410;2022-09-30T01:04:11;12.50;95.40
19256;DHT22;9762;52.490;13.410;2022-09-30T01:06:38;12.50;95.40
19256;DHT22;9762;52.490;13.410;2022-09-30T01:09:04;12.50;95.40
19256;DHT22;9762;52.490;13.410;2022-09-30T01:11:29;12.50;95.40
19256;DHT22;9762;52.490;13.410;2022-09-30T01:14:04;12.50;95.50
19256;DHT22;9762;52.490;13.410;2022-09-30T01:21:58;12.40;95.50
19256;DHT22;9762;52.490;13.410;2022-09-30T01:30:37;12.40;95.60
19256;DHT22;9762;52.490;13.410;2022-09-30T01:41:25;12.30;95.70
19256;DHT22;9762;52.490;13.410;2022-09-30T01:44:10;12.30;95.80
19256;DHT22;9762;52.490;13.410;2022-09-30T01:46:44;12.30;95.90
19256;DHT22;9762;52.490;13.410;2022-09-30T01:49:32;12.30;95.90
19256;DHT22;9762;52.490;13.410;2022-09-30T01:52:15;12.30;95.90
19256;DHT22;9762;52.490;13.410;2022-09-30T01:54:55;12.30;95.90
19256;DHT22;9762;52.490;13.410;2022-09-30T01:57:31;12.30;95.90
19256;DHT22;9762;52.490;13.410;2022-09-30T02:02:55;12.20;95.90
19256;DHT22;9762;52.490;13.410;2022-09-30T02:05:24;12.20;95.90
19256;DHT22;9762;52.490;13.410;2022-09-30T02:08:01;12.20;96.00
19256;DHT22;9762;52.490;13.410;2022-09-30T02:10:59;12.20;96.00
19256;DHT22;9762;52.490;13.410;2022-09-30T02:13:36;12.20;96.00
19256;DHT22;9762;52.490;13.410;2022-09-30T02:16:06;12.20;96.00
19256;DHT22;9762;52.490;13.410;2022-09-30T02:18:42;12.20;95.90
19256;DHT22;9762;52.490;13.410;2022-09-30T02:21:11;12.20;96.00
19256;DHT22;9762;52.490;13.410;2022-09-30T02:26:27;12.10;95.60
19256;DHT22;9762;52.490;13.410;2022-09-30T02:28:57;12.10;95.90
19256;DHT22;9762;52.490;13.410;2022-09-30T02:31:31;12.20;96.00
19256;DHT22;9762;52.490;13.410;2022-09-30T02:34:03;12.10;96.00
19256;DHT22;9762;52.490;13.410;2022-09-30T02:36:38;12.10;96.00
19256;DHT22;9762;52.490;13.410;2022-09-30T02:39:10;12.10;96.00
19256;DHT22;9762;52.490;13.410;2022-09-30T02:41:43;12.10;96.00
19256;DHT22;9762;52.490;13.410;2022-09-30T02:44:10;12.10;96.00
19256;DHT22;9762;52.490;13.410;2022-09-30T02:46:45;12.10;96.10
19256;DHT22;9762;52.490;13.410;2022-09-30T02:49:37;12.10;96.00
19256;DHT22;9762;52.490;13.410;2022-09-30T02:52:09;12.00;96.00
19256;DHT22;9762;52.490;13.410;2022-09-30T02:54:43;12.10;96.00
19256;DHT22;9762;52.490;13.410;2022-09-30T02:57:36;12.00;96.00
19256;DHT22;9762;52.490;13.410;2022-09-30T03:00:04;12.00;96.10
19256;DHT22;9762;52.490;13.410;2022-09-30T03:02:30;12.00;96.10
19256;DHT22;9762;52.490;13.410;2022-09-30T03:04:56;12.00;96.10
19256;DHT22;9762;52.490;13.410;2022-09-30T03:07:21;11.90;96.10
19256;DHT22;9762;52.490;13.410;2022-09-30T03:09:47;11.90;96.20
19256;DHT22;9762;52.490;13.410;2022-09-30T03:12:40;12.00;96.20
19256;DHT22;9762;52.490;13.410;2022-09-30T03:20:36;11.90;96.20
19256;DHT22;9762;52.490;13.410;2022-09-30T03:26:25;11.80;96.20
19256;DHT22;9762;52.490;13.410;2022-09-30T03:29:20;11.80;96.60
19256;DHT22;9762;52.490;13.410;2022-09-30T03:32:12;11.80;96.20
19256;DHT22;9762;52.490;13.410;2022-09-30T03:37:45;11.80;96.30
19256;DHT22;9762;52.490;13.410;2022-09-30T03:40:36;11.80;96.30
19256;DHT22;9762;52.490;13.410;2022-09-30T03:43:21;11.80;96.30
19256;DHT22;9762;52.490;13.410;2022-09-30T03:45:56;11.80;96.40
19256;DHT22;9762;52.490;13.410;2022-09-30T03:48:26;11.80;96.40
19256;DHT22;9762;52.490;13.410;2022-09-30T03:50:53;11.80;96.40
19256;DHT22;9762;52.490;13.410;2022-09-30T03:53:19;11.70;96.50
19256;DHT22;9762;52.490;13.410;2022-09-30T03:55:50;11.70;96.50
19256;DHT22;9762;52.490;13.410;2022-09-30T03:58:18;11.70;96.50
19256;DHT22;9762;52.490;13.410;2022-09-30T04:00:49;11.70;96.60
19256;DHT22;9762;52.490;13.410;2022-09-30T04:03:16;11.70;96.60
19256;DHT22;9762;52.490;13.410;2022-09-30T04:05:41;11.70;96.60
19256;DHT22;9762;52.490;13.410;2022-09-30T04:08:07;11.70;96.70
19256;DHT22;9762;52.490;13.410;2022-09-30T04:10:33;11.70;96.60
19256;DHT22;9762;52.490;13.410;2022-09-30T04:12:59;11.70;96.60
19256;DHT22;9762;52.490;13.410;2022-09-30T04:15:24;11.70;96.60
19256;DHT22;9762;52.490;13.410;2022-09-30T04:17:51;11.70;96.60
19256;DHT22;9762;52.490;13.410;2022-09-30T04:20:17;11.70;96.60
19256;DHT22;9762;52.490;13.410;2022-09-30T04:22:42;11.70;96.60
19256;DHT22;9762;52.490;13.410;2022-09-30T04:25:08;11.70;96.50
19256;DHT22;9762;52.490;13.410;2022-09-30T04:27:34;11.60;96.50
19256;DHT22;9762;52.490;13.410;2022-09-30T04:29:59;11.70;96.50
19256;DHT22;9762;52.490;13.410;2022-09-30T04:32:25;11.60;96.50
19256;DHT22;9762;52.490;13.410;2022-09-30T04:34:51;11.60;96.50
19256;DHT22;9762;52.490;13.410;2022-09-30T04:37:18;11.60;96.50
19256;DHT22;9762;52.490;13.410;2022-09-30T04:39:44;11.60;96.50
19256;DHT22;9762;52.490;13.410;2022-09-30T04:42:09;11.60;96.50
19256;DHT22;9762;52.490;13.410;2022-09-30T04:44:35;11.60;96.50
19256;DHT22;9762;52.490;13.410;2022-09-30T04:47:01;11.60;96.50
19256;DHT22;9762;52.490;13.410;2022-09-30T04:49:26;11.60;96.60
19256;DHT22;9762;52.490;13.410;2022-09-30T04:51:52;11.60;96.50
19256;DHT22;9762;52.490;13.410;2022-09-30T04:54:17;11.60;96.90
19256;DHT22;9762;52.490;13.410;2022-09-30T04:56:43;11.60;96.50
19256;DHT22;9762;52.490;13.410;2022-09-30T04:59:09;11.60;96.60
19256;DHT22;9762;52.490;13.410;2022-09-30T05:01:35;11.50;96.60
19256;DHT22;9762;52.490;13.410;2022-09-30T05:04:01;11.50;96.70
19256;DHT22;9762;52.490;13.410;2022-09-30T05:06:26;11.60;96.80
19256;DHT22;9762;52.490;13.410;2022-09-30T05:08:52;11.60;97.00
19256;DHT22;9762;52.490;13.410;2022-09-30T05:11:19;11.60;96.80
19256;DHT22;9762;52.490;13.410;2022-09-30T05:13:46;11.60;96.70
19256;DHT22;9762;52.490;13.410;2022-09-30T05:16:13;11.60;96.70
19256;DHT22;9762;52.490;13.410;2022-09-30T05:18:39;11.50;96.80
19256;DHT22;9762;52.490;13.410;2022-09-30T05:21:07;11.50;96.70
19256;DHT22;9762;52.490;13.410;2022-09-30T05:23:33;11.50;96.70
19256;DHT22;9762;52.490;13.410;2022-09-30T05:25:59;11.50;96.80
19256;DHT22;9762;52.490;13.410;2022-09-30T05:28:26;11.50;96.90
19256;DHT22;9762;52.490;13.410;2022-09-30T05:30:56;11.50;96.90
19256;DHT22;9762;52.490;13.410;2022-09-30T05:33:23;11.50;96.90
19256;DHT22;9762;52.490;13.410;2022-09-30T05:35:49;11.60;96.90
19256;DHT22;9762;52.490;13.410;2022-09-30T05:38:14;11.50;96.90
19256;DHT22;9762;52.490;13.410;2022-09-30T05:40:40;11.50;96.80
19256;DHT22;9762;52.490;13.410;2022-09-30T05:43:06;11.50;97.00
19256;DHT22;9762;52.490;13.410;2022-09-30T05:45:32;11.50;97.00
19256;DHT22;9762;52.490;13.410;2022-09-30T05:47:58;11.50;97.10
19256;DHT22;9762;52.490;13.410;2022-09-30T05:50:24;11.60;97.10
19256;DHT22;9762;52.490;13.410;2022-09-30T05:52:50;11.50;97.20
19256;DHT22;9762;52.490;13.410;2022-09-30T05:55:17;11.60;97.00
19256;DHT22;9762;52.490;13.410;2022-09-30T05:57:43;11.50;97.00
19256;DHT22;9762;52.490;13.410;2022-09-30T06:00:12;11.50;97.30
19256;DHT22;9762;52.490;13.410;2022-09-30T06:02:37;11.60;97.40
19256;DHT22;9762;52.490;13.410;2022-09-30T06:05:04;11.60;97.40
19256;DHT22;9762;52.490;13.410;2022-09-30T06:07:33;11.60;97.50
19256;DHT22;9762;52.490;13.410;2022-09-30T06:09:59;11.70;97.50
19256;DHT22;9762;52.490;13.410;2022-09-30T06:12:24;11.70;97.50
19256;DHT22;9762;52.490;13.410;2022-09-30T06:14:54;11.80;97.40
19256;DHT22;9762;52.490;13.410;2022-09-30T06:17:20;11.80;97.60
19256;DHT22;9762;52.490;13.410;2022-09-30T06:19:46;11.90;97.60
19256;DHT22;9762;52.490;13.410;2022-09-30T06:22:11;11.90;97.60
19256;DHT22;9762;52.490;13.410;2022-09-30T06:24:37;12.00;97.60
19256;DHT22;9762;52.490;13.410;2022-09-30T06:27:02;12.00;97.40
19256;DHT22;9762;52.490;13.410;2022-09-30T06:29:28;12.00;97.40
19256;DHT22;9762;52.490;13.410;2022-09-30T06:31:54;12.10;97.40
19256;DHT22;9762;52.490;13.410;2022-09-30T06:34:20;12.10;97.90
19256;DHT22;9762;52.490;13.410;2022-09-30T06:36:45;12.10;97.50
19256;DHT22;9762;52.490;13.410;2022-09-30T06:39:11;12.10;97.30
19256;DHT22;9762;52.490;13.410;2022-09-30T06:41:37;12.10;97.50
19256;DHT22;9762;52.490;13.410;2022-09-30T06:44:09;12.10;97.50
19256;DHT22;9762;52.490;13.410;2022-09-30T06:46:35;12.20;97.60
19256;DHT22;9762;52.490;13.410;2022-09-30T06:49:01;12.20;97.50
19256;DHT22;9762;52.490;13.410;2022-09-30T06:51:29;12.30;97.50
19256;DHT22;9762;52.490;13.410;2022-09-30T06:53:58;12.30;97.60
19256;DHT22;9762;52.490;13.410;2022-09-30T06:56:24;12.30;97.60
19256;DHT22;9762;52.490;13.410;2022-09-30T06:58:50;12.40;97.70
19256;DHT22;9762;52.490;13.410;2022-09-30T07:01:16;12.50;97.60
19256;DHT22;9762;52.490;13.410;2022-09-30T07:03:44;12.50;97.60
19256;DHT22;9762;52.490;13.410;2022-09-30T07:06:12;12.50;97.60
19256;DHT22;9762;52.490;13.410;2022-09-30T07:08:38;12.60;97.60
19256;DHT22;9762;52.490;13.410;2022-09-30T07:11:09;12.70;97.50
19256;DHT22;9762;52.490;13.410;2022-09-30T07:13:41;12.70;97.40
19256;DHT22;9762;52.490;13.410;2022-09-30T07:16:08;12.70;97.40
19256;DHT22;9762;52.490;13.410;2022-09-30T07:18:36;12.80;97.50
19256;DHT22;9762;52.490;13.410;2022-09-30T07:21:02;12.80;97.60
19256;DHT22;9762;52.490;13.410;2022-09-30T07:23:28;12.90;97.70
19256;DHT22;9762;52.490;13.410;2022-09-30T07:25:55;12.90;97.70
19256;DHT22;9762;52.490;13.410;2022-09-30T07:28:23;13.00;97.60
19256;DHT22;9762;52.490;13.410;2022-09-30T07:30:53;13.00;97.40
19256;DHT22;9762;52.490;13.410;2022-09-30T07:33:24;13.10;97.40
19256;DHT22;9762;52.490;13.410;2022-09-30T07:35:53;13.10;97.40
19256;DHT22;9762;52.490;13.410;2022-09-30T07:38:21;13.20;97.40
19256;DHT22;9762;52.490;13.410;2022-09-30T07:40:52;13.30;97.40
19256;DHT22;9762;52.490;13.410;2022-09-30T07:43:18;13.30;97.40
19256;DHT22;9762;52.490;13.410;2022-09-30T07:45:44;13.40;97.40
19256;DHT22;9762;52.490;13.410;2022-09-30T07:48:10;13.50;97.30
19256;DHT22;9762;52.490;13.410;2022-09-30T07:50:55;13.50;97.30
19256;DHT22;9762;52.490;13.410;2022-09-30T07:53:21;13.60;97.30
19256;DHT22;9762;52.490;13.410;2022-09-30T07:55:46;13.60;97.30
19256;DHT22;9762;52.490;13.410;2022-09-30T07:58:12;13.70;97.20
19256;DHT22;9762;52.490;13.410;2022-09-30T08:00:37;13.70;97.00
19256;DHT22;9762;52.490;13.410;2022-09-30T08:03:03;13.80;97.00
19256;DHT22;9762;52.490;13.410;2022-09-30T08:05:29;13.90;96.80
19256;DHT22;9762;52.490;13.410;2022-09-30T08:07:55;13.90;96.60
19256;DHT22;9762;52.490;13.410;2022-09-30T08:10:20;14.00;96.70
19256;DHT22;9762;52.490;13.410;2022-09-30T08:12:46;14.10;96.80
19256;DHT22;9762;52.490;13.410;2022-09-30T08:15:11;14.10;96.90
19256;DHT22;9762;52.490;13.410;2022-09-30T08:17:37;14.20;97.00
19256;DHT22;9762;52.490;13.410;2022-09-30T08:20:03;14.20;96.80
19256;DHT22;9762;52.490;13.410;2022-09-30T08:22:28;14.30;96.70
19256;DHT22;9762;52.490;13.410;2022-09-30T08:24:54;14.40;96.70
19256;DHT22;9762;52.490;13.410;2022-09-30T08:27:19;14.40;96.60
19256;DHT22;9762;52.490;13.410;2022-09-30T08:29:45;14.50;96.50
19256;DHT22;9762;52.490;13.410;2022-09-30T08:32:11;14.60;96.40
19256;DHT22;9762;52.490;13.410;2022-09-30T08:34:36;14.70;96.40
19256;DHT22;9762;52.490;13.410;2022-09-30T08:37:03;14.80;96.30
19256;DHT22;9762;52.490;13.410;2022-09-30T08:39:28;14.80;96.20
19256;DHT22;9762;52.490;13.410;2022-09-30T08:42:01;14.90;96.10
19256;DHT22;9762;52.490;13.410;2022-09-30T08:44:40;15.00;96.00
19256;DHT22;9762;52.490;13.410;2022-09-30T08:47:29;15.10;95.80
19256;DHT22;9762;52.490;13.410;2022-09-30T08:53:09;15.30;95.80
19256;DHT22;9762;52.490;13.410;2022-09-30T08:55:43;15.40;95.50
19256;DHT22;9762;52.490;13.410;2022-09-30T08:58:22;15.50;95.30
19256;DHT22;9762;52.490;13.410;2022-09-30T09:00:53;15.60;95.00
19256;DHT22;9762;52.490;13.410;2022-09-30T09:03:20;15.70;94.60
19256;DHT22;9762;52.490;13.410;2022-09-30T09:08:28;15.80;94.20
19256;DHT22;9762;52.490;13.410;2022-09-30T09:11:15;15.90;94.20
19256;DHT22;9762;52.490;13.410;2022-09-30T09:14:03;16.00;94.20
19256;DHT22;9762;52.490;13.410;2022-09-30T09:17:02;16.10;93.80
19256;DHT22;9762;52.490;13.410;2022-09-30T09:22:16;16.20;93.70
19256;DHT22;9762;52.490;13.410;2022-09-30T09:24:44;16.30;93.40
19256;DHT22;9762;52.490;13.410;2022-09-30T09:27:20;16.40;93.30
19256;DHT22;9762;52.490;13.410;2022-09-30T09:32:17;16.60;92.70
19256;DHT22;9762;52.490;13.410;2022-09-30T09:34:44;16.70;92.90
19256;DHT22;9762;52.490;13.410;2022-09-30T09:39:59;16.90;92.20
19256;DHT22;9762;52.490;13.410;2022-09-30T09:45:22;17.00;91.40
19256;DHT22;9762;52.490;13.410;2022-09-30T09:47:52;17.00;91.40
19256;DHT22;9762;52.490;13.410;2022-09-30T09:55:57;17.30;90.90
19256;DHT22;9762;52.490;13.410;2022-09-30T09:58:25;17.40;90.60
19256;DHT22;9762;52.490;13.410;2022-09-30T10:00:51;17.40;90.70
19256;DHT22;9762;52.490;13.410;2022-09-30T10:03:24;17.50;90.30
19256;DHT22;9762;52.490;13.410;2022-09-30T10:06:04;17.50;90.10
19256;DHT22;9762;52.490;13.410;2022-09-30T10:08:33;17.60;89.80
19256;DHT22;9762;52.490;13.410;2022-09-30T10:11:01;17.60;89.40
19256;DHT22;9762;52.490;13.410;2022-09-30T10:13:40;17.70;89.20
19256;DHT22;9762;52.490;13.410;2022-09-30T10:16:25;17.70;88.60
19256;DHT22;9762;52.490;13.410;2022-09-30T10:18:52;17.80;88.40
19256;DHT22;9762;52.490;13.410;2022-09-30T10:21:21;17.90;89.10
19256;DHT22;9762;52.490;13.410;2022-09-30T10:23:47;17.90;88.50
19256;DHT22;9762;52.490;13.410;2022-09-30T10:31:31;18.10;87.20
19256;DHT22;9762;52.490;13.410;2022-09-30T10:36:33;18.30;86.40
19256;DHT22;9762;52.490;13.410;2022-09-30T10:39:15;18.30;84.80
19256;DHT22;9762;52.490;13.410;2022-09-30T10:41:44;18.40;83.60
19256;DHT22;9762;52.490;13.410;2022-09-30T10:44:28;18.40;83.60
19256;DHT22;9762;52.490;13.410;2022-09-30T10:47:00;18.50;82.00
19256;DHT22;9762;52.490;13.410;2022-09-30T10:49:30;18.50;81.60
19256;DHT22;9762;52.490;13.410;2022-09-30T10:51:57;18.60;82.10
19256;DHT22;9762;52.490;13.410;2022-09-30T10:54:43;19.30;81.60
19256;DHT22;9762;52.490;13.410;2022-09-30T10:57:27;21.00;78.90
19256;DHT22;9762;52.490;13.410;2022-09-30T11:00:21;23.20;73.30
19256;DHT22;9762;52.490;13.410;2022-09-30T11:03:00;25.20;68.60
19256;DHT22;9762;52.490;13.410;2022-09-30T11:05:37;27.20;63.90
19256;DHT22;9762;52.490;13.410;2022-09-30T11:08:17;28.60;57.60
19256;DHT22;9762;52.490;13.410;2022-09-30T11:10:59;29.60;54.80
19256;DHT22;9762;52.490;13.410;2022-09-30T11:13:48;30.20;55.90
19256;DHT22;9762;52.490;13.410;2022-09-30T11:16:23;30.20;51.30
19256;DHT22;9762;52.490;13.410;2022-09-30T11:19:09;30.00;51.10
19256;DHT22;9762;52.490;13.410;2022-09-30T11:21:40;29.90;50.80
19256;DHT22;9762;52.490;13.410;2022-09-30T11:29:48;30.40;48.70
19256;DHT22;9762;52.490;13.410;2022-09-30T11:43:51;33.10;43.20
19256;DHT22;9762;52.490;13.410;2022-09-30T11:46:42;33.20;41.70
19256;DHT22;9762;52.490;13.410;2022-09-30T11:57:55;36.20;41.50
19256;DHT22;9762;52.490;13.410;2022-09-30T12:00:22;36.90;59.30
19256;DHT22;9762;52.490;13.410;2022-09-30T12:02:51;37.30;36.20
19256;DHT22;9762;52.490;13.410;2022-09-30T12:05:39;36.60;40.00
19256;DHT22;9762;52.490;13.410;2022-09-30T12:08:16;36.30;40.50
19256;DHT22;9762;52.490;13.410;2022-09-30T12:10:47;36.60;36.40
19256;DHT22;9762;52.490;13.410;2022-09-30T12:13:26;37.00;35.40
19256;DHT22;9762;52.490;13.410;2022-09-30T12:15:55;37.30;35.00
19256;DHT22;9762;52.490;13.410;2022-09-30T12:18:26;37.20;33.60
19256;DHT22;9762;52.490;13.410;2022-09-30T12:21:08;36.50;34.00
19256;DHT22;9762;52.490;13.410;2022-09-30T12:23:46;36.50;34.90
19256;DHT22;9762;52.490;13.410;2022-09-30T12:26:14;36.70;35.10
19256;DHT22;9762;52.490;13.410;2022-09-30T12:28:49;36.70;34.40
19256;DHT22;9762;52.490;13.410;2022-09-30T12:34:20;36.80;35.00
19256;DHT22;9762;52.490;13.410;2022-09-30T12:42:56;37.20;34.20
19256;DHT22;9762;52.490;13.410;2022-09-30T12:48:36;37.50;33.80
19256;DHT22;9762;52.490;13.410;2022-09-30T12:51:03;37.40;33.30
19256;DHT22;9762;52.490;13.410;2022-09-30T12:53:32;37.10;33.10
19256;DHT22;9762;52.490;13.410;2022-09-30T12:56:08;37.00;33.40
19256;DHT22;9762;52.490;13.410;2022-09-30T13:01:17;36.90;33.40
19256;DHT22;9762;52.490;13.410;2022-09-30T13:06:25;36.80;33.50
19256;DHT22;9762;52.490;13.410;2022-09-30T13:09:15;36.80;33.50
19256;DHT22;9762;52.490;13.410;2022-09-30T13:11:46;36.60;33.00
19256;DHT22;9762;52.490;13.410;2022-09-30T13:14:34;35.80;32.80
19256;DHT22;9762;52.490;13.410;2022-09-30T13:19:43;34.20;33.60
19256;DHT22;9762;52.490;13.410;2022-09-30T13:32:40;32.80;36.30
19256;DHT22;9762;52.490;13.410;2022-09-30T13:43:42;31.70;41.60
19256;DHT22;9762;52.490;13.410;2022-09-30T13:48:47;31.30;38.10
19256;DHT22;9762;52.490;13.410;2022-09-30T13:51:15;30.90;38.10
19256;DHT22;9762;52.490;13.410;2022-09-30T13:53:51;30.60;38.80
19256;DHT22;9762;52.490;13.410;2022-09-30T13:56:23;30.30;39.00
19256;DHT22;9762;52.490;13.410;2022-09-30T14:07:05;29.20;39.20
19256;DHT22;9762;52.490;13.410;2022-09-30T14:10:02;28.90;40.00
19256;DHT22;9762;52.490;13.410;2022-09-30T14:18:43;27.90;40.60
19256;DHT22;9762;52.490;13.410;2022-09-30T14:23:58;27.10;41.30
19256;DHT22;9762;52.490;13.410;2022-09-30T14:29:41;26.70;42.60
19256;DHT22;9762;52.490;13.410;2022-09-30T14:32:16;26.50;43.10
19256;DHT22;9762;52.490;13.410;2022-09-30T14:34:44;26.20;43.10
19256;DHT22;9762;52.490;13.410;2022-09-30T14:37:27;26.00;43.90
19256;DHT22;9762;52.490;13.410;2022-09-30T14:39:54;25.70;44.50
19256;DHT22;9762;52.490;13.410;2022-09-30T14:42:31;25.40;44.80
19256;DHT22;9762;52.490;13.410;2022-09-30T14:44:59;25.20;45.20
19256;DHT22;9762;52.490;13.410;2022-09-30T14:47:37;25.00;45.80
19256;DHT22;9762;52.490;13.410;2022-09-30T14:50:08;24.70;46.10
19256;DHT22;9762;52.490;13.410;2022-09-30T14:52:46;24.50;46.50
19256;DHT22;9762;52.490;13.410;2022-09-30T14:55:31;24.30;47.00
19256;DHT22;9762;52.490;13.410;2022-09-30T15:03:25;23.80;48.00
19256;DHT22;9762;52.490;13.410;2022-09-30T15:05:51;23.70;48.30
19256;DHT22;9762;52.490;13.410;2022-09-30T15:08:19;23.60;48.90
19256;DHT22;9762;52.490;13.410;2022-09-30T15:10:47;23.40;49.10
19256;DHT22;9762;52.490;13.410;2022-09-30T15:13:14;23.30;49.80
19256;DHT22;9762;52.490;13.410;2022-09-30T15:15:42;23.10;50.00
19256;DHT22;9762;52.490;13.410;2022-09-30T15:18:31;22.80;50.30
19256;DHT22;9762;52.490;13.410;2022-09-30T15:21:09;22.60;50.90
19256;DHT22;9762;52.490;13.410;2022-09-30T15:23:37;22.40;51.30
19256;DHT22;9762;52.490;13.410;2022-09-30T15:26:03;22.20;51.50
19256;DHT22;9762;52.490;13.410;2022-09-30T15:28:31;22.10;51.90
19256;DHT22;9762;52.490;13.410;2022-09-30T15:30:59;21.90;52.50
19256;DHT22;9762;52.490;13.410;2022-09-30T15:33:26;21.80;54.50
19256;DHT22;9762;52.490;13.410;2022-09-30T15:36:11;21.70;54.70
19256;DHT22;9762;52.490;13.410;2022-09-30T15:38:39;21.70;55.60
19256;DHT22;9762;52.490;13.410;2022-09-30T15:41:08;21.60;56.00
19256;DHT22;9762;52.490;13.410;2022-09-30T15:43:35;21.60;56.50
19256;DHT22;9762;52.490;13.410;2022-09-30T15:46:17;21.60;58.20
19256;DHT22;9762;52.490;13.410;2022-09-30T15:48:43;21.60;54.30
19256;DHT22;9762;52.490;13.410;2022-09-30T15:51:32;21.60;54.60
19256;DHT22;9762;52.490;13.410;2022-09-30T15:54:01;21.50;55.00
19256;DHT22;9762;52.490;13.410;2022-09-30T15:56:32;21.50;56.10
19256;DHT22;9762;52.490;13.410;2022-09-30T15:59:02;21.40;56.10
19256;DHT22;9762;52.490;13.410;2022-09-30T16:04:10;21.30;56.10
19256;DHT22;9762;52.490;13.410;2022-09-30T16:09:29;21.20;56.60
19256;DHT22;9762;52.490;13.410;2022-09-30T16:12:08;21.10;56.90
19256;DHT22;9762;52.490;13.410;2022-09-30T16:14:45;21.00;57.10
19256;DHT22;9762;52.490;13.410;2022-09-30T16:17:26;20.90;57.20
19256;DHT22;9762;52.490;13.410;2022-09-30T16:19:54;20.90;57.50
19256;DHT22;9762;52.490;13.410;2022-09-30T16:30:23;20.50;58.10
19256;DHT22;9762;52.490;13.410;2022-09-30T16:32:51;20.50;58.20
19256;DHT22;9762;52.490;13.410;2022-09-30T16:35:23;20.40;58.60
19256;DHT22;9762;52.490;13.410;2022-09-30T16:37:50;20.30;58.90
19256;DHT22;9762;52.490;13.410;2022-09-30T16:40:24;20.20;59.30
19256;DHT22;9762;52.490;13.410;2022-09-30T16:42:50;20.20;59.40
19256;DHT22;9762;52.490;13.410;2022-09-30T16:45:20;20.10;59.50
19256;DHT22;9762;52.490;13.410;2022-09-30T16:47:46;20.00;59.70
19256;DHT22;9762;52.490;13.410;2022-09-30T16:53:01;19.90;60.10
19256;DHT22;9762;52.490;13.410;2022-09-30T16:55:27;19.80;60.10
19256;DHT22;9762;52.490;13.410;2022-09-30T16:57:55;19.80;60.30
19256;DHT22;9762;52.490;13.410;2022-09-30T17:00:22;19.70;61.60
19256;DHT22;9762;52.490;13.410;2022-09-30T17:02:48;19.70;61.00
19256;DHT22;9762;52.490;13.410;2022-09-30T17:05:16;19.60;61.60
19256;DHT22;9762;52.490;13.410;2022-09-30T17:07:49;19.50;61.70
19256;DHT22;9762;52.490;13.410;2022-09-30T17:10:18;19.50;62.10
19256;DHT22;9762;52.490;13.410;2022-09-30T17:12:44;19.40;62.00
19256;DHT22;9762;52.490;13.410;2022-09-30T17:15:09;19.40;62.10
19256;DHT22;9762;52.490;13.410;2022-09-30T17:17:37;19.30;62.30
19256;DHT22;9762;52.490;13.410;2022-09-30T17:20:02;19.20;62.70
19256;DHT22;9762;52.490;13.410;2022-09-30T17:22:28;19.20;63.20
19256;DHT22;9762;52.490;13.410;2022-09-30T17:24:54;19.20;67.30
19256;DHT22;9762;52.490;13.410;2022-09-30T17:27:19;19.10;66.10
19256;DHT22;9762;52.490;13.410;2022-09-30T17:29:45;19.00;64.80
19256;DHT22;9762;52.490;13.410;2022-09-30T17:32:11;18.90;65.00
19256;DHT22;9762;52.490;13.410;2022-09-30T17:34:36;18.90;65.40
19256;DHT22;9762;52.490;13.410;2022-09-30T17:37:02;18.80;64.90
19256;DHT22;9762;52.490;13.410;2022-09-30T17:39:27;18.80;65.10
19256;DHT22;9762;52.490;13.410;2022-09-30T17:41:53;18.70;65.30
19256;DHT22;9762;52.490;13.410;2022-09-30T17:44:37;18.60;65.80
19256;DHT22;9762;52.490;13.410;2022-09-30T17:47:03;18.60;66.40
19256;DHT22;9762;52.490;13.410;2022-09-30T17:49:31;18.50;66.70
19256;DHT22;9762;52.490;13.410;2022-09-30T17:51:57;18.50;66.90
19256;DHT22;9762;52.490;13.410;2022-09-30T17:54:23;18.40;67.20
19256;DHT22;9762;52.490;13.410;2022-09-30T17:56:49;18.30;67.20
19256;DHT22;9762;52.490;13.410;2022-09-30T17:59:14;18.30;67.60
19256;DHT22;9762;52.490;13.410;2022-09-30T18:01:40;18.20;67.70
19256;DHT22;9762;52.490;13.410;2022-09-30T18:04:06;18.20;67.90
19256;DHT22;9762;52.490;13.410;2022-09-30T18:06:31;18.10;68.10
19256;DHT22;9762;52.490;13.410;2022-09-30T18:08:58;18.00;68.50
19256;DHT22;9762;52.490;13.410;2022-09-30T18:11:26;18.00;69.80
19256;DHT22;9762;52.490;13.410;2022-09-30T18:13:53;17.90;70.00
19256;DHT22;9762;52.490;13.410;2022-09-30T18:16:20;17.80;69.50
19256;DHT22;9762;52.490;13.410;2022-09-30T18:18:48;17.80;69.80
19256;DHT22;9762;52.490;13.410;2022-09-30T18:21:14;17.80;70.30
19256;DHT22;9762;52.490;13.410;2022-09-30T18:23:39;17.70;70.40
19256;DHT22;9762;52.490;13.410;2022-09-30T18:26:05;17.60;70.80
19256;DHT22;9762;52.490;13.410;2022-09-30T18:28:31;17.60;71.30
19256;DHT22;9762;52.490;13.410;2022-09-30T18:31:06;17.60;71.40
19256;DHT22;9762;52.490;13.410;2022-09-30T18:33:32;17.50;71.30
19256;DHT22;9762;52.490;13.410;2022-09-30T18:36:02;17.50;71.70
19256;DHT22;9762;52.490;13.410;2022-09-30T18:38:32;17.40;72.20
19256;DHT22;9762;52.490;13.410;2022-09-30T18:40:58;17.40;74.50
19256;DHT22;9762;52.490;13.410;2022-09-30T18:43:24;17.30;72.50
19256;DHT22;9762;52.490;13.410;2022-09-30T18:45:54;17.30;72.80
19256;DHT22;9762;52.490;13.410;2022-09-30T18:48:21;17.20;73.20